»·PEaware :: SAS489 KBUR-KLAS

SAS489 :: KBUR-KLAS

FLIGHT INFORMATION

Flight Status: Arrived
Operator:
SAS
More flights by this operator :: More flights under this callsign
Pilot: Anonymous 9219 (9219)
Aircraft: AIRBUS A320
(A320)
More flights by this aircraft type
Origin: KBUR Bob Hope-Burbank
United States
Destination: KLAS McCarran Intl
United States
More flights between these airports :: More routes between these airports
Route: +VNY2 DAG KEPEC3
File this flight plan on PilotEdge
Remarks: RMK / LIVE STREAM TWITCH.TV / GIANTUNICORN
Altitude:
(Current/Filed)
27,000ft
Speed:
(Current/Filed)
420kts
Departed: 26-Feb-16 11:19 AM
Arrived: 26-Feb-16 12:29 PM
Distance/Time
Traveled:
194nm/1:10
Distance/Time
To Go:
Arrived

Flight Plot

Page will automatically refresh every two minutes.


Map Options




Map Legend


Flown Route
Filed Route
Departure Airport
Arrival Airport
Navaid (VOR, NDB)
Fix

Horizontal Profiles

Position Reports

Time Latitude Longitude Heading Altitude Ground
Speed
26-Feb-16 10:35 34.196797 -118.350153 180 785ft 0kts
26-Feb-16 10:36 34.196797 -118.350153 180 785ft 0kts
26-Feb-16 10:38 34.196829 -118.352395 180 786ft 0kts
26-Feb-16 10:39 34.196829 -118.352395 180 786ft 0kts
26-Feb-16 10:40 34.196829 -118.352395 180 786ft 0kts
26-Feb-16 10:41 34.196829 -118.352395 180 786ft 0kts
26-Feb-16 10:42 34.196829 -118.352395 180 786ft 0kts
26-Feb-16 10:43 34.196829 -118.352395 180 786ft 0kts
26-Feb-16 10:44 34.196829 -118.352395 180 786ft 0kts
26-Feb-16 10:45 34.196829 -118.352395 180 786ft 0kts
26-Feb-16 10:46 34.196829 -118.352395 180 786ft 0kts
26-Feb-16 10:47 34.196829 -118.352395 180 786ft 0kts
26-Feb-16 10:48 34.196829 -118.352395 180 786ft 0kts
26-Feb-16 10:49 34.196829 -118.352395 180 786ft 0kts
26-Feb-16 10:50 34.196829 -118.352395 180 786ft 0kts
26-Feb-16 10:51 34.196829 -118.352395 180 786ft 0kts
26-Feb-16 10:52 34.196829 -118.352395 180 786ft 0kts
26-Feb-16 10:53 34.196829 -118.352395 180 786ft 0kts
26-Feb-16 10:54 34.196829 -118.352395 180 786ft 0kts
26-Feb-16 10:55 34.196829 -118.352395 180 786ft 0kts
26-Feb-16 10:56 34.196829 -118.352395 180 786ft 0kts
26-Feb-16 10:57 34.196829 -118.352395 180 786ft 0kts
26-Feb-16 10:58 34.196829 -118.352395 180 786ft 0kts
26-Feb-16 10:59 34.196829 -118.352395 180 786ft 0kts
26-Feb-16 11:00 34.197086 -118.352393 180 785ft 1kts
26-Feb-16 11:01 34.197253 -118.352392 180 785ft 0kts
26-Feb-16 11:02 34.197210 -118.352392 180 785ft 0kts
26-Feb-16 11:03 34.197348 -118.352561 97 785ft 0kts
26-Feb-16 11:04 34.197348 -118.352561 97 785ft 0kts
26-Feb-16 11:05 34.197348 -118.352561 97 785ft 0kts
26-Feb-16 11:06 34.198783 -118.352970 275 785ft 10kts
26-Feb-16 11:07 34.200804 -118.355922 346 786ft 19kts
26-Feb-16 11:08 34.205796 -118.357301 349 786ft 17kts
26-Feb-16 11:09 34.209768 -118.358396 348 785ft 8kts
26-Feb-16 11:10 34.211599 -118.359088 309 786ft 0kts
26-Feb-16 11:11 34.211599 -118.359088 309 786ft 0kts
26-Feb-16 11:12 34.208635 -118.359443 167 786ft 78kts
26-Feb-16 11:13 34.179283 -118.375861 281 2673ft 165kts
26-Feb-16 11:14 34.202461 -118.436814 295 3955ft 224kts
26-Feb-16 11:20 34.196829 -118.352395 180 786ft 0kts
26-Feb-16 11:21 34.196829 -118.352395 180 786ft 0kts
26-Feb-16 11:22 34.196829 -118.352395 180 786ft 0kts
26-Feb-16 11:23 34.196829 -118.352395 180 786ft 0kts
26-Feb-16 11:24 34.196829 -118.352395 180 786ft 0kts
26-Feb-16 11:25 34.196829 -118.352395 180 786ft 0kts
26-Feb-16 11:26 34.196829 -118.352395 180 786ft 0kts
26-Feb-16 11:27 34.196829 -118.352395 180 786ft 0kts
26-Feb-16 11:28 34.196829 -118.352395 180 786ft 0kts
26-Feb-16 11:29 34.196829 -118.352395 180 786ft 0kts
26-Feb-16 11:30 34.196829 -118.352395 180 786ft 0kts
26-Feb-16 11:31 34.196829 -118.352395 180 786ft 0kts
26-Feb-16 11:32 34.196829 -118.352395 180 786ft 0kts
26-Feb-16 11:33 34.196832 -118.352395 180 786ft 0kts
26-Feb-16 11:34 34.197253 -118.352232 270 785ft 0kts
26-Feb-16 11:35 34.197253 -118.352232 270 785ft 0kts
26-Feb-16 11:36 34.197275 -118.353043 268 785ft 15kts
26-Feb-16 11:37 34.202303 -118.356319 346 785ft 24kts
26-Feb-16 11:38 34.207372 -118.357730 347 785ft 15kts
26-Feb-16 11:39 34.211592 -118.359073 311 786ft 9kts
26-Feb-16 11:40 34.211620 -118.359110 310 786ft 0kts
26-Feb-16 11:41 34.211777 -118.360034 233 785ft 13kts
26-Feb-16 11:42 34.204433 -118.358305 167 785ft 127kts
26-Feb-16 11:43 34.163608 -118.374841 222 3088ft 205kts
26-Feb-16 11:44 34.119192 -118.422298 221 3980ft 214kts
26-Feb-16 11:45 34.127018 -118.482942 341 5067ft 273kts
26-Feb-16 11:46 34.200154 -118.501332 21 8506ft 283kts
26-Feb-16 11:47 34.266738 -118.441008 27 10454ft 341kts
26-Feb-16 11:48 34.362076 -118.386389 23 12104ft 405kts
26-Feb-16 11:49 34.463634 -118.325557 41 15043ft 426kts
26-Feb-16 11:50 34.539465 -118.210575 51 17590ft 445kts
26-Feb-16 11:51 34.614892 -118.089690 54 19613ft 462kts
26-Feb-16 11:52 34.645020 -117.936689 81 21279ft 478kts
26-Feb-16 11:53 34.663194 -117.776721 79 22913ft 490kts
26-Feb-16 11:54 34.700977 -117.618093 71 24432ft 504kts
26-Feb-16 11:55 34.742226 -117.455344 71 26690ft 501kts
26-Feb-16 11:56 34.783096 -117.294795 71 27236ft 500kts
26-Feb-16 11:57 34.823960 -117.133324 71 27243ft 500kts
26-Feb-16 11:58 34.864606 -116.971717 71 27244ft 499kts
26-Feb-16 11:59 34.904047 -116.815205 71 27239ft 498kts
26-Feb-16 12:00 34.944394 -116.653012 71 27213ft 501kts
26-Feb-16 12:01 35.014853 -116.514215 45 24805ft 482kts
26-Feb-16 12:02 35.108925 -116.395670 43 24233ft 499kts
26-Feb-16 12:03 35.205792 -116.274289 43 24237ft 498kts
26-Feb-16 12:04 35.296593 -116.160202 44 21585ft 431kts
26-Feb-16 12:05 35.371747 -116.065494 44 19217ft 368kts
26-Feb-16 12:06 35.440804 -115.978235 44 17639ft 349kts
26-Feb-16 12:07 35.506281 -115.895279 45 16301ft 331kts
26-Feb-16 12:08 35.569024 -115.816147 45 15083ft 324kts
26-Feb-16 12:09 35.620733 -115.750497 45 14090ft 318kts
26-Feb-16 12:10 35.681126 -115.673424 45 13031ft 311kts
26-Feb-16 12:11 35.725135 -115.564369 71 12036ft 308kts
26-Feb-16 12:12 35.746696 -115.482916 71 11124ft 281kts
26-Feb-16 12:13 35.768813 -115.397879 71 9767ft 245kts
26-Feb-16 12:14 35.793350 -115.320772 35 7779ft 232kts
26-Feb-16 12:15 35.848232 -115.298216 20 6246ft 196kts
26-Feb-16 12:16 35.893941 -115.273833 23 5038ft 170kts
26-Feb-16 12:17 35.937143 -115.249418 23 5028ft 170kts
26-Feb-16 12:18 35.980125 -115.224882 24 4561ft 169kts
26-Feb-16 12:19 36.021307 -115.201317 24 3544ft 144kts
26-Feb-16 12:20 36.057387 -115.180643 24 2692ft 142kts
26-Feb-16 12:21 36.090633 -115.161599 25 2149ft 82kts
26-Feb-16 12:22 36.095616 -115.156915 93 2150ft 0kts
26-Feb-16 12:23 36.094736 -115.154310 126 2149ft 17kts
26-Feb-16 12:24 36.090558 -115.155920 203 2149ft 0kts
26-Feb-16 12:25 36.087169 -115.157877 201 2149ft 15kts
26-Feb-16 12:26 36.083563 -115.156082 155 2150ft 10kts
26-Feb-16 12:27 36.079764 -115.153926 153 2149ft 21kts
26-Feb-16 12:28 36.078759 -115.150890 93 2149ft 16kts
26-Feb-16 12:29 36.078286 -115.143809 95 2150ft 18kts
26-Feb-16 12:30 36.079897 -115.140417 57 2149ft 0kts
26-Feb-16 12:31 36.079897 -115.140417 57 2149ft 0kts

Navigation Log

Ident Type
1. KBUR Airport
2. IPIHO Fix
3. TWINE Fix
4. LANGE Fix
5. PMD Navaid
6. DAG Navaid
7. MISEN Fix
8. CLARR Fix
9. SKEBR Fix
10. KEPEC Fix
11. IPUMY Fix
12. NIPZO Fix
13. SUNST Fix
14. KIMME Fix
15. CHIPZ Fix
16. POKRR Fix
17. PRINO Fix
18. KLAS Airport